Time;durP1;ratioP1;P1;durP2;ratioP2;P2;SDS_P1;SDS_P2;PMS_P1;PMS_P2;Temp;Humidity;BMP_temperature;BMP_pressure;BME280_temperature;BME280_humidity;BME280_pressure;Samples;Min_cycle;Max_cycle;Signal;HPM_P1;HPM_P2
2022/09/28 00:01:26;;;;;;;;;1.00;1.00;;;;;23.47;48.83;100056.06;146642;629;46010;-75
2022/09/28 00:04:19;;;;;;;;;1.00;1.00;;;;;23.52;49.94;100045.44;146642;656;45033;-77
2022/09/28 00:07:12;;;;;;;;;5.50;4.25;;;;;23.50;49.30;100049.88;146646;571;45010;-76
2022/09/28 00:10:12;;;;;;;;;2.00;1.00;;;;;23.48;49.29;100055.16;146639;687;46921;-77
2022/09/28 00:13:11;;;;;;;;;4.00;2.75;;;;;23.51;49.69;100052.47;146647;664;45032;-76
2022/09/28 00:16:15;;;;;;;;;1.00;1.00;;;;;23.46;49.50;100041.09;146644;626;45921;-78
2022/09/28 00:19:16;;;;;;;;;3.00;2.00;;;;;23.38;49.88;100050.87;146638;573;45021;-83
2022/09/28 00:22:20;;;;;;;;;2.25;2.25;;;;;23.31;49.29;100058.94;146645;585;45016;-78
2022/09/28 00:25:15;;;;;;;;;3.00;2.00;;;;;23.25;50.67;100047.50;146646;631;46011;-79
2022/09/28 00:28:21;;;;;;;;;2.00;2.00;;;;;23.19;50.59;100059.94;146643;569;45016;-77
2022/09/28 00:31:29;;;;;;;;;2.33;2.33;;;;;23.10;50.88;100060.03;146647;670;45020;-78
2022/09/28 00:34:21;;;;;;;;;4.25;3.75;;;;;23.04;50.69;100058.31;146641;666;46025;-77
2022/09/28 00:37:21;;;;;;;;;2.67;2.33;;;;;23.04;50.43;100067.13;146646;574;45020;-80
2022/09/28 00:40:13;;;;;;;;;2.67;1.33;;;;;23.04;50.86;100060.97;146644;615;45921;-76
2022/09/28 00:43:25;;;;;;;;;3.00;2.00;;;;;23.09;49.76;100059.16;146644;564;45028;-77
2022/09/28 00:46:39;;;;;;;;;2.00;2.00;;;;;23.15;50.09;100060.87;146645;579;45016;-76
2022/09/28 00:49:47;;;;;;;;;1.33;1.33;;;;;23.19;50.23;100071.37;146636;639;45020;-74
2022/09/28 00:53:39;;;;;;;;;1.33;1.33;;;;;21.67;49.47;99802.47;146641;594;45920;-78
2022/09/28 00:56:51;;;;;;;;;1.00;1.00;;;;;23.21;49.97;100063.44;146646;564;46011;-74
2022/09/28 00:59:48;;;;;;;;;1.67;1.67;;;;;23.18;49.93;100048.47;146644;615;45920;-78
2022/09/28 01:02:45;;;;;;;;;2.00;2.00;;;;;23.19;49.99;100049.34;146643;603;47010;-79
2022/09/28 01:05:42;;;;;;;;;5.00;3.00;;;;;23.15;49.70;100037.94;146645;693;45016;-78
2022/09/28 01:08:50;;;;;;;;;3.33;2.33;;;;;23.15;49.85;100048.50;146645;569;46010;-79
2022/09/28 01:11:48;;;;;;;;;4.25;1.25;;;;;23.14;49.82;100046.75;146640;571;46013;-77
2022/09/28 01:14:44;;;;;;;;;2.33;1.33;;;;;23.14;50.10;100051.16;146648;577;45020;-71
2022/09/28 01:18:22;;;;;;;;;3.33;2.33;;;;;23.10;49.34;100046.81;146644;590;45017;-71
2022/09/28 01:21:23;;;;;;;;;2.67;2.00;;;;;23.05;49.23;100058.31;146639;617;45020;-74
2022/09/28 01:24:46;;;;;;;;;3.00;3.00;;;;;21.52;48.91;99789.41;146628;574;46017;-77
2022/09/28 01:28:18;;;;;;;;;1.25;1.00;;;;;21.16;48.35;99744.84;146628;706;46020;-74
2022/09/28 01:31:19;;;;;;;;;1.00;1.00;;;;;22.18;47.73;99910.25;146624;570;46016;-74
2022/09/28 01:34:26;;;;;;;;;1.00;1.00;;;;;23.08;47.55;100048.56;146626;577;47021;-75
2022/09/28 01:37:24;;;;;;;;;1.00;1.00;;;;;23.19;47.42;100058.16;146622;574;46025;-74
2022/09/28 01:40:46;;;;;;;;;;;;;;;;;;;;;
2022/09/28 01:44:13;;;;;;;;;;;;;;;;;;;;;
2022/09/28 01:47:16;;;;;;;;;0.00;0.00;;;;;23.50;46.77;100049.88;146627;592;46020;-76
2022/09/28 01:50:25;;;;;;;;;2.00;1.00;;;;;23.53;46.43;100047.19;146618;590;46016;-74
2022/09/28 01:54:02;;;;;;;;;1.00;0.00;;;;;22.74;46.47;99915.00;146622;652;46020;-75
2022/09/28 01:57:40;;;;;;;;;1.00;1.00;;;;;23.49;46.74;100037.53;146622;673;46012;-75
2022/09/28 02:01:13;;;;;;;;;0.33;0.33;;;;;21.59;46.49;99739.25;146627;609;46020;-76
2022/09/28 02:04:30;;;;;;;;;1.00;1.00;;;;;23.31;46.54;100027.19;146623;599;46014;-76
2022/09/28 02:07:59;;;;;;;;;1.00;1.00;;;;;23.26;46.59;100027.22;146628;566;46010;-76
2022/09/28 02:11:25;;;;;;;;;1.00;1.00;;;;;21.31;46.54;99712.22;146622;626;46016;-75
2022/09/28 02:14:31;;;;;;;;;;;;;;;;;;;;;
2022/09/28 02:17:24;;;;;;;;;2.25;1.00;;;;;23.23;46.99;100035.19;146620;572;46014;-75
2022/09/28 02:20:49;;;;;;;;;;;;;;;;;;;;;
2022/09/28 02:24:06;;;;;;;;;0.00;0.00;;;;;21.45;46.91;99741.13;146623;566;46017;-77
2022/09/28 02:27:15;;;;;;;;;1.00;1.00;;;;;23.15;46.63;100050.28;146619;627;46010;-77
2022/09/28 02:30:18;;;;;;;;;1.00;1.00;;;;;23.06;46.38;100043.31;146623;579;47012;-83
2022/09/28 02:33:51;;;;;;;;;1.00;1.00;;;;;21.27;46.62;99765.84;146627;594;47010;-81
2022/09/28 02:36:47;;;;;;;;;2.00;2.00;;;;;22.97;46.68;100060.16;146626;609;46016;-81
2022/09/28 02:39:40;;;;;;;;;1.75;1.00;;;;;22.91;46.85;100054.03;146628;588;46010;-77
2022/09/28 02:42:56;;;;;;;;;0.67;0.67;;;;;22.86;46.87;100055.81;146625;576;46012;-75
2022/09/28 02:46:32;;;;;;;;;2.50;1.25;;;;;22.83;46.89;100056.72;146628;615;46010;-76
2022/09/28 02:49:59;;;;;;;;;0.75;0.75;;;;;21.07;46.47;99766.00;146623;576;46012;-74
2022/09/28 02:53:33;;;;;;;;;1.00;1.00;;;;;22.79;46.55;100053.22;146628;621;47012;-74
2022/09/28 02:57:12;;;;;;;;;1.75;1.75;;;;;22.77;46.87;100059.41;146621;618;47012;-74
2022/09/28 03:00:38;;;;;;;;;3.25;2.00;;;;;22.75;46.67;100056.81;146625;569;47010;-74
2022/09/28 03:04:05;;;;;;;;;0.33;0.00;;;;;22.78;45.70;100063.84;146623;571;46016;-74
2022/09/28 03:07:47;;;;;;;;;2.00;2.00;;;;;20.52;46.34;99668.84;146625;659;48020;-73
2022/09/28 03:11:24;;;;;;;;;3.00;0.75;;;;;22.92;45.52;100053.13;146624;592;46012;-75
2022/09/28 03:14:27;;;;;;;;;7.25;7.25;;;;;22.87;46.30;100053.19;146630;608;46020;-76
2022/09/28 03:17:23;;;;;;;;;1.00;1.00;;;;;22.83;46.02;100062.91;146621;657;46034;-75
2022/09/28 03:20:24;;;;;;;;;2.00;2.00;;;;;22.73;46.16;100063.87;146625;574;46020;-75
2022/09/28 03:23:28;;;;;;;;;2.25;1.25;;;;;21.82;46.34;99934.28;146621;687;46016;-75
2022/09/28 03:26:20;;;;;;;;;1.25;1.00;;;;;22.55;46.59;100074.59;146626;574;46010;-74
2022/09/28 03:29:19;;;;;;;;;3.00;1.00;;;;;22.49;46.59;100070.25;146622;647;46038;-75
2022/09/28 03:32:26;;;;;;;;;1.50;1.50;;;;;22.46;47.23;100077.28;146625;638;46020;-77
2022/09/28 03:35:24;;;;;;;;;2.25;2.00;;;;;22.44;46.90;100071.16;146617;630;47014;-73
2022/09/28 03:38:20;;;;;;;;;2.75;1.00;;;;;22.42;46.90;100075.56;146625;589;46021;-72
2022/09/28 03:41:12;;;;;;;;;2.00;2.00;;;;;22.36;46.70;100074.72;146624;599;46016;-77
2022/09/28 03:44:07;;;;;;;;;2.00;2.00;;;;;22.35;47.08;100087.97;146627;685;46020;-81
2022/09/28 03:47:14;;;;;;;;;1.75;1.00;;;;;22.33;46.57;100087.09;146624;675;46013;-79
2022/09/28 03:50:15;;;;;;;;;1.00;1.00;;;;;22.31;46.17;100084.47;146626;567;46020;-79
2022/09/28 03:53:08;;;;;;;;;1.33;1.33;;;;;22.30;46.66;100081.81;146625;597;46012;-80
2022/09/28 03:56:28;;;;;;;;;3.00;2.00;;;;;20.55;46.91;99778.56;146626;645;46020;-79
2022/09/28 03:59:26;;;;;;;;;0.00;0.00;;;;;22.28;46.58;100076.56;146624;580;46017;-80
2022/09/28 04:02:20;;;;;;;;;1.00;1.00;;;;;22.32;45.63;100085.34;146618;612;47020;-81
2022/09/28 04:05:15;;;;;;;;;1.00;0.00;;;;;22.38;45.63;100077.37;146624;586;46014;-76
2022/09/28 04:08:14;;;;;;;;;2.00;1.00;;;;;22.44;45.41;100081.75;146624;669;47010;-77
2022/09/28 04:11:06;;;;;;;;;3.00;2.50;;;;;22.48;45.14;100086.97;146623;722;46016;-77
2022/09/28 04:14:10;;;;;;;;;2.00;0.75;;;;;22.54;45.41;100068.44;146627;608;46010;-79
2022/09/28 04:17:07;;;;;;;;;0.25;0.25;;;;;22.60;45.30;100078.06;146621;613;47012;-75
2022/09/28 04:20:12;;;;;;;;;2.00;2.00;;;;;22.64;44.92;100069.22;146627;576;46020;-78
2022/09/28 04:23:05;;;;;;;;;1.50;0.75;;;;;22.65;44.99;100072.75;146621;566;46017;-80
2022/09/28 04:26:00;;;;;;;;;2.50;2.50;;;;;22.64;45.25;100055.16;146627;652;46020;-77
2022/09/28 04:32:04;;;;;;;;;1.75;1.75;;;;;22.56;44.45;100064.03;146621;576;46020;-81
2022/09/28 04:34:57;;;;;;;;;1.25;1.25;;;;;22.53;44.32;100065.81;146621;569;46016;-85
2022/09/28 04:37:49;;;;;;;;;4.00;1.75;;;;;21.65;44.31;99926.50;146628;564;46010;-83
2022/09/28 04:40:42;;;;;;;;;4.00;1.00;;;;;22.45;44.94;100088.75;146623;695;46921;-83
2022/09/28 04:43:45;;;;;;;;;2.75;2.00;;;;;22.45;45.16;100092.28;146627;598;46020;-83
2022/09/28 04:46:38;;;;;;;;;2.25;2.25;;;;;22.48;44.94;100079.03;146623;597;46016;-83
2022/09/28 04:49:37;;;;;;;;;4.25;2.00;;;;;22.52;45.13;100099.28;146628;681;46020;-85
2022/09/28 04:52:30;;;;;;;;;2.67;2.67;;;;;22.57;45.76;100096.59;146623;564;46017;-73
2022/09/28 04:55:22;;;;;;;;;3.00;2.00;;;;;22.62;45.58;100093.91;146625;647;46021;-71
2022/09/28 04:58:33;;;;;;;;;2.33;1.33;;;;;23.07;46.32;100087.38;146624;623;46014;-72
2022/09/28 05:01:31;;;;;;;;;3.00;2.50;;;;;24.10;44.79;100078.22;146615;582;46021;-70
2022/09/28 05:04:43;;;;;;;;;2.00;2.00;;;;;25.23;42.53;100094.06;146623;704;46016;-71
2022/09/28 05:07:40;;;;;;;;;3.33;3.00;;;;;26.40;40.86;100101.34;146628;587;46021;-72
2022/09/28 05:10:39;;;;;;;;;2.00;2.00;;;;;27.44;38.52;100097.81;146624;593;47014;-72
2022/09/28 05:13:34;;;;;;;;;6.25;3.75;;;;;28.18;38.47;100109.03;146622;610;46020;-72
2022/09/28 05:16:32;;;;;;;;;4.00;4.00;;;;;28.86;36.81;100111.28;146623;597;46012;-72
2022/09/28 05:19:33;;;;;;;;;4.00;4.00;;;;;29.44;35.86;100113.75;146624;596;47020;-74
2022/09/28 05:22:26;;;;;;;;;5.67;4.00;;;;;29.76;36.13;100125.94;146625;573;46012;-73
2022/09/28 05:25:33;;;;;;;;;6.00;4.25;;;;;28.52;35.23;99875.03;146636;590;45020;-74
2022/09/28 05:28:37;;;;;;;;;4.50;2.00;;;;;29.93;34.05;100130.62;146634;643;46012;-73
2022/09/28 05:31:36;;;;;;;;;4.33;3.00;;;;;29.60;35.04;100120.25;146635;628;46011;-72
2022/09/28 05:34:43;;;;;;;;;6.50;5.00;;;;;29.42;36.70;100131.63;146636;599;45012;-74
2022/09/28 05:37:40;;;;;;;;;4.00;3.75;;;;;29.30;36.60;100137.38;146635;695;46021;-73
2022/09/28 05:40:35;;;;;;;;;5.00;4.00;;;;;29.19;35.95;100141.31;146634;724;45016;-73
2022/09/28 05:43:35;;;;;;;;;6.50;4.50;;;;;28.95;37.01;100140.31;146636;682;45020;-73
2022/09/28 05:46:42;;;;;;;;;;;;;;;;;;;;;
2022/09/28 05:49:43;;;;;;;;;3.25;2.25;;;;;28.43;37.35;100131.34;146635;665;45020;-74
2022/09/28 05:52:38;;;;;;;;;2.00;1.00;;;;;28.37;37.54;100128.84;146636;566;45016;-74
2022/09/28 05:55:32;;;;;;;;;11.00;3.00;;;;;28.27;37.92;100128.25;146636;648;46010;-73
2022/09/28 05:58:34;;;;;;;;;4.25;3.75;;;;;28.18;37.89;100123.22;146636;565;45012;-75
2022/09/28 06:01:27;;;;;;;;;3.00;0.33;;;;;28.18;37.88;100133.88;146637;569;45020;-78
2022/09/28 06:04:33;;;;;;;;;3.00;3.00;;;;;27.39;38.42;100007.47;146632;598;45012;-79
2022/09/28 06:07:31;;;;;;;;;3.00;3.00;;;;;28.15;37.52;100130.44;146637;640;45010;-82
2022/09/28 06:10:24;;;;;;;;;5.00;4.00;;;;;28.17;37.37;100133.94;146633;595;45016;-77
2022/09/28 06:13:19;;;;;;;;;9.00;8.25;;;;;28.21;37.15;100124.91;146633;737;45020;-78
2022/09/28 06:16:19;;;;;;;;;5.00;4.00;;;;;27.55;36.93;100007.00;146633;666;47014;-77
2022/09/28 06:19:14;;;;;;;;;3.00;2.25;;;;;28.22;36.94;100124.84;146635;626;46010;-72
2022/09/28 06:22:07;;;;;;;;;3.67;3.67;;;;;28.27;37.27;100119.41;146634;675;46012;-75
2022/09/28 06:25:02;;;;;;;;;3.67;2.00;;;;;28.38;37.03;100133.28;146627;570;46020;-76
2022/09/28 06:28:18;;;;;;;;;3.00;2.00;;;;;28.51;38.15;100139.13;146623;589;46921;-75
2022/09/28 06:31:19;;;;;;;;;1.33;1.33;;;;;28.65;36.76;100138.66;146618;595;47010;-76
2022/09/28 06:34:22;;;;;;;;;3.00;1.67;;;;;28.77;37.92;100140.94;146622;631;46032;-75
2022/09/28 06:37:20;;;;;;;;;2.67;2.00;;;;;28.89;35.80;100137.84;146626;630;46021;-75
2022/09/28 06:40:21;;;;;;;;;1.00;1.00;;;;;28.99;36.41;100139.28;146623;569;46016;-76
2022/09/28 06:43:19;;;;;;;;;2.33;1.00;;;;;29.10;36.74;100135.44;146626;630;46010;-75
2022/09/28 06:46:16;;;;;;;;;5.00;4.00;;;;;29.27;35.81;100141.03;146624;575;46017;-75
2022/09/28 06:49:13;;;;;;;;;3.00;2.00;;;;;29.41;36.43;100135.22;146626;601;46012;-77
2022/09/28 06:52:22;;;;;;;;;5.00;4.50;;;;;29.54;36.40;100149.88;146622;572;47014;-76
2022/09/28 06:55:24;;;;;;;;;1.00;1.00;;;;;29.62;35.43;100150.47;146625;569;47012;-75
2022/09/28 06:58:31;;;;;;;;;2.00;2.00;;;;;29.68;35.48;100150.25;146621;672;46017;-76
2022/09/28 07:01:32;;;;;;;;;2.33;2.00;;;;;29.65;35.10;100149.50;146618;622;46030;-76
2022/09/28 07:04:44;;;;;;;;;4.00;2.00;;;;;29.66;36.42;100152.13;146622;563;46919;-75
2022/09/28 07:07:40;;;;;;;;;2.67;2.67;;;;;29.76;34.21;100154.47;146629;619;46020;-77
2022/09/28 07:10:38;;;;;;;;;1.00;1.00;;;;;29.80;34.50;100154.28;146623;598;46016;-75
2022/09/28 07:13:32;;;;;;;;;3.00;2.00;;;;;29.89;35.32;100158.41;146625;586;47010;-75
2022/09/28 07:16:25;;;;;;;;;3.25;2.75;;;;;30.01;35.73;100154.41;146623;620;47014;-71
2022/09/28 07:19:24;;;;;;;;;2.00;2.00;;;;;30.16;35.40;100156.50;146628;580;46020;-73
2022/09/28 07:22:17;;;;;;;;;3.00;3.00;;;;;30.32;35.17;100156.81;146622;692;46919;-70
2022/09/28 07:25:25;;;;;;;;;3.00;2.00;;;;;30.48;35.48;100154.41;146619;576;46020;-70
2022/09/28 07:28:20;;;;;;;;;5.33;2.67;;;;;30.57;34.57;100146.88;146609;608;48016;-71
2022/09/28 07:31:15;;;;;;;;;1.33;1.33;;;;;30.68;34.14;100156.25;146620;574;46020;-70
2022/09/28 07:34:22;;;;;;;;;2.33;2.00;;;;;30.82;32.72;100138.72;146613;578;47014;-71
2022/09/28 07:37:25;;;;;;;;;1.50;1.50;;;;;30.77;34.58;100139.81;146620;617;46021;-70
2022/09/28 07:43:45;;;;;;;;;1.33;1.33;;;;;30.52;32.32;100132.78;146618;608;47008;-74
2022/09/28 07:46:39;;;;;;;;;2.00;0.67;;;;;30.38;32.67;100135.16;146616;575;46012;-70
2022/09/28 07:49:35;;;;;;;;;1.33;1.33;;;;;30.23;32.28;100147.34;146618;606;46020;-72
2022/09/28 07:52:36;;;;;;;;;4.00;2.00;;;;;29.40;33.77;100016.81;146615;720;46017;-76
2022/09/28 07:55:36;;;;;;;;;0.00;0.00;;;;;30.01;33.62;100136.56;146620;582;46020;-73
2022/09/28 07:58:33;;;;;;;;;1.00;1.00;;;;;30.00;33.37;100133.94;146616;601;46016;-73
2022/09/28 08:01:29;;;;;;;;;1.00;1.00;;;;;30.04;33.23;100131.09;146616;598;46020;-73
2022/09/28 08:04:34;;;;;;;;;1.00;1.00;;;;;30.09;32.89;100133.59;146615;603;46919;-77
2022/09/28 08:07:39;;;;;;;;;1.75;1.00;;;;;30.20;34.04;100134.09;146616;598;47012;-83
2022/09/28 08:10:51;;;;;;;;;0.00;0.00;;;;;30.36;33.65;100135.22;146613;638;47012;-78
2022/09/28 08:13:51;;;;;;;;;1.00;1.00;;;;;30.46;33.08;100138.38;146620;637;46021;-83
2022/09/28 08:16:52;;;;;;;;;1.67;1.00;;;;;30.53;33.12;100134.56;146613;571;47012;-81
2022/09/28 08:23:07;;;;;;;;;1.67;1.67;;;;;30.74;31.84;100146.16;146616;608;46014;-81
2022/09/28 08:26:07;;;;;;;;;1.00;1.00;;;;;30.87;32.56;100143.00;146637;590;45020;-76
2022/09/28 08:29:05;;;;;;;;;1.00;1.00;;;;;30.99;32.51;100138.00;146634;565;45017;-75
2022/09/28 08:32:15;;;;;;;;;1.00;1.00;;;;;31.13;33.97;100142.78;146636;563;45012;-80
2022/09/28 08:35:25;;;;;;;;;1.33;0.00;;;;;31.34;33.41;100142.81;146634;667;45016;-78
2022/09/28 08:38:33;;;;;;;;;;;;;;;;;;;;;
2022/09/28 08:42:13;;;;;;;;;1.00;1.00;;;;;31.78;34.19;100139.94;146635;575;45012;-81
2022/09/28 08:45:25;;;;;;;;;1.67;1.67;;;;;32.02;32.15;100138.84;146636;577;46010;-82
2022/09/28 08:52:22;;;;;;;;;1.00;1.00;;;;;32.13;30.62;100141.03;146637;596;45010;-80
2022/09/28 08:55:41;;;;;;;;;3.00;1.00;;;;;32.08;32.64;100138.56;146634;563;45917;-80
2022/09/28 08:58:57;;;;;;;;;2.00;2.00;;;;;30.77;32.54;99874.84;146640;590;45010;-82
2022/09/28 09:02:38;;;;;;;;;1.33;0.67;;;;;31.38;32.27;99956.91;146635;615;46012;-81
2022/09/28 09:06:11;;;;;;;;;4.67;1.00;;;;;32.36;31.52;100116.62;146638;622;45010;-81
2022/09/28 09:09:43;;;;;;;;;0.67;0.67;;;;;32.22;31.66;100107.53;146631;569;46012;-78
2022/09/28 09:13:16;;;;;;;;;1.00;1.00;;;;;32.14;31.40;100106.06;146638;634;45021;-79
2022/09/28 09:17:11;;;;;;;;;1.00;1.00;;;;;30.52;28.34;99854.56;146637;591;45016;-80
2022/09/28 09:20:34;;;;;;;;;1.00;1.00;;;;;31.98;31.20;100105.94;146637;635;46010;-78
2022/09/28 09:24:00;;;;;;;;;2.00;1.67;;;;;30.99;30.95;99955.09;146637;579;45016;-83
2022/09/28 09:27:20;;;;;;;;;1.00;1.00;;;;;31.79;28.93;100113.09;146619;605;46027;-83
2022/09/28 09:30:47;;;;;;;;;2.33;1.67;;;;;30.24;29.87;99854.06;146615;575;46016;-78
2022/09/28 09:34:23;;;;;;;;;1.00;1.00;;;;;30.37;30.42;99861.50;146621;624;46030;-80
2022/09/28 09:37:57;;;;;;;;;2.67;2.00;;;;;30.76;31.90;99891.88;146614;651;47014;-83
2022/09/28 09:41:27;;;;;;;;;2.00;1.00;;;;;32.24;31.21;100109.19;146620;600;46020;-83
2022/09/28 09:45:15;;;;;;;;;2.67;1.33;;;;;32.46;31.50;100116.22;146615;583;46034;-81
2022/09/28 09:48:38;;;;;;;;;3.00;2.00;;;;;32.59;30.92;100120.06;146619;633;46020;-78
2022/09/28 09:51:54;;;;;;;;;2.25;2.25;;;;;32.63;28.96;100114.47;146616;711;46017;-79
2022/09/28 09:55:16;;;;;;;;;;;;;;;;;;;;;
2022/09/28 09:58:44;;;;;;;;;;;;;;;;;;;;;
2022/09/28 10:01:46;;;;;;;;;2.25;2.25;;;;;32.63;29.40;100094.81;146618;661;46010;-80
2022/09/28 10:04:50;;;;;;;;;2.75;2.75;;;;;32.69;29.35;100094.50;146614;574;46016;-81
2022/09/28 10:08:23;;;;;;;;;3.00;2.50;;;;;31.09;28.16;99837.72;146620;689;46010;-80
2022/09/28 10:11:25;;;;;;;;;3.50;3.50;;;;;32.32;28.81;100098.09;146615;606;46016;-81
2022/09/28 10:14:39;;;;;;;;;;;;;;;;;;;;;
2022/09/28 10:17:46;;;;;;;;;4.00;3.50;;;;;30.51;30.54;99847.47;146616;684;46012;-83
2022/09/28 10:20:42;;;;;;;;;2.75;2.75;;;;;31.87;29.91;100067.13;146622;713;45021;-84
2022/09/28 10:23:48;;;;;;;;;4.00;4.00;;;;;31.91;29.70;100071.47;146615;573;46012;-82
2022/09/28 10:27:10;;;;;;;;;3.00;3.00;;;;;31.84;29.69;100061.91;146640;588;46020;-79
2022/09/28 10:30:30;;;;;;;;;5.75;4.50;;;;;30.14;31.30;99805.44;146630;697;46016;-79
2022/09/28 10:33:47;;;;;;;;;7.00;5.50;;;;;31.46;31.15;100067.25;146646;632;45020;-81
2022/09/28 10:37:02;;;;;;;;;5.00;5.00;;;;;29.37;30.92;99747.22;146643;612;45012;-82
2022/09/28 10:39:59;;;;;;;;;5.00;4.75;;;;;31.12;31.02;100062.50;146648;566;45010;-80
2022/09/28 10:42:51;;;;;;;;;7.00;6.25;;;;;31.13;30.25;100056.22;146642;588;45017;-78
2022/09/28 10:45:48;;;;;;;;;15.75;15.00;;;;;31.12;31.08;100051.78;146634;569;45010;-81
2022/09/28 10:49:05;;;;;;;;;6.50;5.50;;;;;29.80;30.88;99785.50;146643;563;45016;-81
2022/09/28 10:52:02;;;;;;;;;4.75;4.00;;;;;31.46;30.01;100035.09;146648;606;45020;-78
2022/09/28 10:55:01;;;;;;;;;7.75;6.00;;;;;31.64;30.35;100036.94;146642;685;45016;-82
2022/09/28 10:57:57;;;;;;;;;5.00;5.00;;;;;31.85;29.23;100036.87;146646;638;45011;-82
2022/09/28 11:00:52;;;;;;;;;4.00;4.00;;;;;31.85;29.68;100042.22;146642;564;45919;-79
2022/09/28 11:04:09;;;;;;;;;3.00;3.00;;;;;31.89;31.17;100031.31;146645;652;45020;-81
2022/09/28 11:07:04;;;;;;;;;4.00;4.00;;;;;31.94;30.13;100023.91;146643;680;46920;-81
2022/09/28 11:10:10;;;;;;;;;3.50;3.00;;;;;31.94;30.71;100026.59;146646;630;45010;-76
2022/09/28 11:13:04;;;;;;;;;3.25;3.25;;;;;31.75;30.54;100026.56;146645;704;45016;-78
2022/09/28 11:16:11;;;;;;;;;4.25;4.25;;;;;31.51;30.03;100025.03;146640;676;45020;-80
2022/09/28 11:19:32;;;;;;;;;5.00;4.00;;;;;30.64;30.55;99873.69;146642;574;46012;-79
2022/09/28 11:22:44;;;;;;;;;6.50;5.75;;;;;31.66;31.20;100013.63;146644;569;45010;-78
2022/09/28 11:25:46;;;;;;;;;3.75;3.75;;;;;31.79;30.47;100018.41;146624;623;46012;-76
2022/09/28 11:28:56;;;;;;;;;4.50;3.25;;;;;31.94;30.37;100020.37;146628;618;46021;-79
2022/09/28 11:32:03;;;;;;;;;6.00;5.50;;;;;31.84;29.77;100013.66;146622;569;46012;-79
2022/09/28 11:35:07;;;;;;;;;4.25;3.25;;;;;31.75;31.26;100015.84;146629;685;46011;-75
2022/09/28 11:38:38;;;;;;;;;4.00;3.33;;;;;30.17;32.19;99754.50;146621;569;46016;-79
2022/09/28 11:42:07;;;;;;;;;3.00;3.00;;;;;31.51;33.15;100011.66;146625;689;47013;-80
2022/09/28 11:45:39;;;;;;;;;2.50;2.50;;;;;31.53;33.26;100015.12;146621;635;46014;-77
2022/09/28 11:48:47;;;;;;;;;3.67;3.67;;;;;31.69;33.32;100005.44;146621;665;46021;-76
2022/09/28 11:51:46;;;;;;;;;2.33;1.33;;;;;31.90;31.07;100013.41;146622;617;47012;-77
2022/09/28 11:54:55;;;;;;;;;2.33;2.33;;;;;31.69;32.70;100021.50;146627;607;46010;-77
2022/09/28 11:58:03;;;;;;;;;3.00;3.00;;;;;31.47;33.71;100015.44;146622;596;46016;-78
2022/09/28 12:01:27;;;;;;;;;3.75;3.75;;;;;31.37;32.30;100009.63;146626;573;47010;-79
2022/09/28 12:04:47;;;;;;;;;4.00;3.00;;;;;29.81;32.38;99749.81;146626;610;46017;-79
2022/09/28 12:08:24;;;;;;;;;4.33;3.33;;;;;29.88;32.30;99756.66;146626;575;46012;-78
2022/09/28 12:11:35;;;;;;;;;2.33;2.00;;;;;29.87;30.43;99741.53;146622;581;46035;-76
2022/09/28 12:14:51;;;;;;;;;4.33;2.33;;;;;31.43;30.92;100003.09;146629;639;46020;-79
2022/09/28 12:18:11;;;;;;;;;3.00;3.00;;;;;31.43;32.04;100001.28;146621;565;46033;-78
2022/09/28 12:21:50;;;;;;;;;3.33;3.00;;;;;31.20;30.75;99996.97;146621;596;46020;-78
2022/09/28 12:24:54;;;;;;;;;3.67;3.67;;;;;31.10;30.56;99992.97;146613;605;46012;-77
2022/09/28 12:28:04;;;;;;;;;4.00;4.00;;;;;31.09;30.88;100001.06;146619;570;46030;-76
2022/09/28 12:30:57;;;;;;;;;3.00;3.00;;;;;30.94;29.73;99983.91;146614;578;46016;-79
2022/09/28 12:33:57;;;;;;;;;2.67;2.67;;;;;30.73;31.42;99986.53;146619;572;46021;-76
2022/09/28 12:37:52;;;;;;;;;3.67;3.67;;;;;28.75;30.01;99667.88;146616;594;46016;-77
2022/09/28 12:41:27;;;;;;;;;4.67;3.67;;;;;30.82;31.04;99975.47;146619;686;46011;-77
2022/09/28 12:45:16;;;;;;;;;2.67;2.67;;;;;29.21;29.79;99704.28;146616;628;46032;-77
2022/09/28 12:48:39;;;;;;;;;3.00;2.00;;;;;30.70;30.35;99984.00;146618;569;47008;-78
2022/09/28 12:51:59;;;;;;;;;3.00;3.00;;;;;28.62;30.91;99645.31;146616;660;46032;-74
2022/09/28 12:55:48;;;;;;;;;;;;;;;;;;;;;
2022/09/28 12:59:34;;;;;;;;;2.00;2.00;;;;;30.77;30.08;99977.44;146615;602;46018;-74
2022/09/28 13:03:30;;;;;;;;;3.00;3.00;;;;;29.41;30.54;99718.59;146618;609;46010;-78
2022/09/28 13:07:15;;;;;;;;;3.00;3.00;;;;;29.14;30.20;99718.81;146613;593;46016;-78
2022/09/28 13:10:44;;;;;;;;;2.33;2.33;;;;;28.71;31.37;99672.50;146615;559;47010;-77
2022/09/28 13:14:09;;;;;;;;;2.50;2.50;;;;;29.13;30.85;99725.09;146614;664;46016;-77
2022/09/28 13:17:55;;;;;;;;;1.75;1.75;;;;;30.67;30.31;99967.19;146619;573;46020;-77
2022/09/28 13:21:19;;;;;;;;;2.33;2.00;;;;;30.71;29.72;99966.97;146622;599;46012;-76
2022/09/28 13:24:16;;;;;;;;;2.50;2.50;;;;;30.61;30.41;99966.53;146625;724;46025;-75
2022/09/28 13:27:30;;;;;;;;;3.00;2.67;;;;;30.45;30.48;99962.78;146622;572;46016;-76
2022/09/28 13:30:26;;;;;;;;;4.67;3.00;;;;;30.33;31.15;99966.84;146623;578;46020;-77
2022/09/28 13:34:09;;;;;;;;;4.33;3.33;;;;;30.28;31.73;99971.53;146624;647;46016;-79
2022/09/28 13:37:33;;;;;;;;;2.00;2.00;;;;;30.43;30.52;99991.38;146635;625;46010;-75
2022/09/28 13:41:08;;;;;;;;;2.00;2.00;;;;;29.16;31.99;99741.00;146622;587;46017;-77
2022/09/28 13:44:28;;;;;;;;;3.00;3.00;;;;;30.91;31.50;100008.12;146712;566;46015;-78
2022/09/28 13:47:51;;;;;;;;;3.33;3.33;;;;;31.06;30.86;99997.59;146629;638;46012;-79
2022/09/28 13:51:05;;;;;;;;;1.33;1.33;;;;;31.23;29.73;99975.38;146632;641;46021;-77
2022/09/28 13:55:09;;;;;;;;;2.00;2.00;;;;;31.37;30.97;99977.47;146619;631;46016;-77
2022/09/28 13:58:19;;;;;;;;;2.33;2.00;;;;;30.67;30.41;99857.50;146633;599;46010;-77
2022/09/28 14:01:32;;;;;;;;;3.00;3.00;;;;;31.26;30.94;99991.31;146625;615;46016;-75
2022/09/28 14:05:02;;;;;;;;;3.33;3.33;;;;;31.10;31.00;99984.06;146631;620;46020;-76
2022/09/28 14:08:37;;;;;;;;;5.00;5.00;;;;;30.34;31.76;99875.00;146625;643;46032;-79
2022/09/28 14:12:05;;;;;;;;;4.00;4.00;;;;;30.18;31.76;99862.31;146634;627;46010;-77
2022/09/28 14:15:06;;;;;;;;;3.75;3.75;;;;;30.83;31.56;99995.91;146623;713;46017;-78
2022/09/28 14:18:51;;;;;;;;;3.33;3.33;;;;;30.68;31.84;99996.56;146632;576;46010;-78
2022/09/28 14:22:33;;;;;;;;;5.00;4.00;;;;;29.89;32.60;99880.47;146624;664;46014;-78
2022/09/28 14:25:32;;;;;;;;;4.25;3.50;;;;;30.54;32.14;99985.59;146627;571;47012;-78
2022/09/28 14:29:04;;;;;;;;;6.00;4.00;;;;;30.52;32.40;99976.75;146626;628;46014;-77
2022/09/28 14:32:25;;;;;;;;;5.75;4.75;;;;;30.55;32.71;99977.50;146626;569;46020;-78
2022/09/28 14:35:43;;;;;;;;;5.25;5.25;;;;;30.54;32.03;99985.59;146624;597;46016;-78
2022/09/28 14:42:20;;;;;;;;;6.25;6.25;;;;;30.38;31.79;99988.94;146624;657;46016;-80
2022/09/28 14:45:44;;;;;;;;;6.25;5.25;;;;;30.25;31.71;99985.03;146624;565;46010;-79
2022/09/28 14:49:15;;;;;;;;;5.00;5.00;;;;;30.18;31.40;99979.94;146619;666;46018;-78
2022/09/28 14:53:03;;;;;;;;;;;;;;;;;;;;;
2022/09/28 14:56:16;;;;;;;;;6.00;6.00;;;;;30.02;32.04;99979.72;146617;700;46016;-77
2022/09/28 14:59:41;;;;;;;;;4.25;3.75;;;;;29.97;32.08;99973.69;146620;698;46020;-79
2022/09/28 15:03:03;;;;;;;;;5.50;5.00;;;;;29.94;32.33;99964.00;146619;654;46012;-78
2022/09/28 15:06:05;;;;;;;;;6.75;6.25;;;;;30.02;32.22;99951.19;146620;577;46021;-78
2022/09/28 15:09:08;;;;;;;;;8.50;7.50;;;;;30.14;32.13;99953.34;146619;663;46016;-78
2022/09/28 15:12:20;;;;;;;;;5.75;5.75;;;;;30.22;32.60;99954.84;146623;697;46011;-78
2022/09/28 15:15:49;;;;;;;;;5.50;5.00;;;;;30.26;31.91;99948.47;146617;622;46016;-76
2022/09/28 15:19:19;;;;;;;;;5.75;5.75;;;;;30.30;31.95;99953.59;146623;690;46020;-79
2022/09/28 15:22:35;;;;;;;;;5.75;5.75;;;;;30.30;31.47;99956.28;146621;608;46012;-78
2022/09/28 15:25:40;;;;;;;;;9.75;7.75;;;;;30.35;31.48;99958.78;146623;600;46010;-77